createdAt,value
2023-04-09T00:01:57.516Z,99084.47
2023-04-09T00:04:24.135Z,99085.06
2023-04-09T00:06:50.710Z,99086.06
2023-04-09T00:09:17.204Z,99082.88
2023-04-09T00:11:43.701Z,99090.25
2023-04-09T00:14:10.145Z,99091.53
2023-04-09T00:16:36.908Z,99088.72
2023-04-09T00:19:03.441Z,99086.38
2023-04-09T00:21:29.970Z,99080.03
2023-04-09T00:23:56.436Z,99084.16
2023-04-09T00:26:22.920Z,99085.06
2023-04-09T00:28:49.814Z,99086.66
2023-04-09T00:31:16.844Z,99078.41
2023-04-09T00:33:44.090Z,99068.75
2023-04-09T00:36:10.682Z,99071.66
2023-04-09T00:38:37.233Z,99072.31
2023-04-09T00:41:03.817Z,99076.88
2023-04-09T00:43:30.236Z,99074.81
2023-04-09T00:45:58.277Z,99080.16
2023-04-09T00:48:25.238Z,99079.75
2023-04-09T00:50:51.764Z,99079.78
2023-04-09T00:53:18.595Z,99083.75
2023-04-09T00:55:45.950Z,99083.50
2023-04-09T00:58:12.570Z,99074.00
2023-04-09T01:00:39.100Z,99074.44
2023-04-09T01:03:07.386Z,99075.69
2023-04-09T01:06:02.924Z,99074.47
2023-04-09T01:09:06.183Z,99076.50
2023-04-09T01:11:42.082Z,99078.53
2023-04-09T01:14:32.710Z,99080.25
2023-04-09T01:17:05.567Z,99075.31
2023-04-09T01:19:43.989Z,99082.69
2023-04-09T01:22:32.734Z,99078.59
2023-04-09T01:25:37.523Z,99086.22
2023-04-09T01:28:21.031Z,99078.22
2023-04-09T01:30:57.544Z,99074.72
2023-04-09T01:33:25.589Z,99077.88
2023-04-09T01:35:53.978Z,99073.94
2023-04-09T01:38:23.046Z,99068.38
2023-04-09T01:40:50.800Z,99077.03
2023-04-09T01:43:18.925Z,99074.56
2023-04-09T01:45:45.786Z,99072.50
2023-04-09T01:48:16.626Z,99075.16
2023-04-09T01:50:43.857Z,99078.66
2023-04-09T01:53:11.090Z,99073.31
2023-04-09T01:55:37.670Z,99074.16
2023-04-09T01:58:04.232Z,99074.16
2023-04-09T02:00:42.657Z,99072.72
2023-04-09T02:03:14.949Z,99066.97
2023-04-09T02:06:03.981Z,99063.06
2023-04-09T02:08:33.054Z,99063.06
2023-04-09T02:11:04.093Z,99067.00
2023-04-09T02:13:32.394Z,99062.44
2023-04-09T02:16:00.063Z,99056.50
2023-04-09T02:18:28.726Z,99054.44
2023-04-09T02:20:56.779Z,99056.31
2023-04-09T02:23:23.603Z,99054.47
2023-04-09T02:25:51.148Z,99049.94
2023-04-09T02:28:17.583Z,99045.81
2023-04-09T02:30:44.390Z,99046.66
2023-04-09T02:33:11.220Z,99048.50
2023-04-09T02:35:37.845Z,99048.50
2023-04-09T02:38:04.515Z,99052.41
2023-04-09T02:40:31.261Z,99048.09
2023-04-09T02:42:58.288Z,99051.16
2023-04-09T02:45:24.911Z,99044.78
2023-04-09T02:47:51.437Z,99045.44
2023-04-09T02:50:18.013Z,99050.38
2023-04-09T02:52:46.596Z,99059.78
2023-04-09T02:55:14.042Z,99054.22
2023-04-09T02:57:41.002Z,99064.50
2023-04-09T03:00:08.333Z,99059.97
2023-04-09T03:02:35.286Z,99057.72
2023-04-09T03:05:02.325Z,99062.41
2023-04-09T03:07:28.776Z,99059.78
2023-04-09T03:09:55.221Z,99061.19
2023-04-09T03:12:21.670Z,99066.13
2023-04-09T03:14:48.135Z,99061.38
2023-04-09T03:17:14.576Z,99059.09
2023-04-09T03:19:41.067Z,99059.91
2023-04-09T03:22:07.738Z,99054.97
2023-04-09T03:24:34.242Z,99055.56
2023-04-09T03:27:00.692Z,99055.56
2023-04-09T03:29:27.194Z,99051.47
2023-04-09T03:31:53.736Z,99056.59
2023-04-09T03:34:20.287Z,99048.22
2023-04-09T03:36:46.816Z,99055.16
2023-04-09T03:39:13.316Z,99053.53
2023-04-09T03:41:39.800Z,99053.59
2023-04-09T03:44:06.295Z,99056.84
2023-04-09T03:46:32.865Z,99060.78
2023-04-09T03:48:59.310Z,99058.06
2023-04-09T03:51:27.004Z,99061.34
2023-04-09T03:53:53.474Z,99059.63
2023-04-09T03:56:19.920Z,99058.38
2023-04-09T03:58:48.482Z,99068.44
2023-04-09T04:01:15.595Z,99063.09
2023-04-09T04:03:42.174Z,99060.84
2023-04-09T04:06:08.815Z,99065.94
2023-04-09T04:08:35.301Z,99060.06
2023-04-09T04:11:05.237Z,99059.66
2023-04-09T04:13:32.146Z,99061.91
2023-04-09T04:15:58.801Z,99065.78
2023-04-09T04:18:25.338Z,99067.75
2023-04-09T04:20:51.823Z,99065.50
2023-04-09T04:23:18.331Z,99066.00
2023-04-09T04:25:44.957Z,99069.22
2023-04-09T04:28:11.425Z,99066.63
2023-04-09T04:30:37.907Z,99066.25
2023-04-09T04:33:04.430Z,99078.94
2023-04-09T04:35:31.038Z,99074.38
2023-04-09T04:37:57.634Z,99080.22
2023-04-09T04:40:24.174Z,99082.00
2023-04-09T04:42:50.666Z,99074.66
2023-04-09T04:45:17.224Z,99077.94
2023-04-09T04:47:43.798Z,99071.72
2023-04-09T04:50:10.613Z,99074.38
2023-04-09T04:52:37.250Z,99069.41
2023-04-09T04:55:03.867Z,99079.25
2023-04-09T04:57:30.600Z,99077.28
2023-04-09T04:59:57.115Z,99074.09
2023-04-09T05:02:23.669Z,99076.53
2023-04-09T05:04:50.184Z,99070.78
2023-04-09T05:07:16.730Z,99076.38
2023-04-09T05:09:44.392Z,99067.66
2023-04-09T05:12:11.137Z,99076.97
2023-04-09T05:14:37.981Z,99076.38
2023-04-09T05:17:04.985Z,99085.81
2023-04-09T05:19:31.547Z,99076.47
2023-04-09T05:21:58.037Z,99077.38
2023-04-09T05:24:24.518Z,99075.50
2023-04-09T05:26:51.184Z,99072.41
2023-04-09T05:29:17.685Z,99077.38
2023-04-09T05:31:44.188Z,99072.81
2023-04-09T05:34:10.634Z,99069.78
2023-04-09T05:36:37.101Z,99072.34
2023-04-09T05:39:03.610Z,99075.88
2023-04-09T05:41:30.304Z,99074.56
2023-04-09T05:43:57.880Z,99076.75
2023-04-09T05:46:26.035Z,99064.97
2023-04-09T05:48:52.910Z,99070.16
2023-04-09T05:51:19.600Z,99079.41
2023-04-09T05:53:46.035Z,99073.91
2023-04-09T05:56:16.078Z,99084.25
2023-04-09T05:58:42.649Z,99077.47
2023-04-09T06:01:10.175Z,99087.75
2023-04-09T06:03:36.921Z,99087.94
2023-04-09T06:06:03.674Z,99091.38
2023-04-09T06:08:30.229Z,99094.19
2023-04-09T06:10:56.697Z,99092.88
2023-04-09T06:13:23.191Z,99092.47
2023-04-09T06:15:49.877Z,99100.81
2023-04-09T06:18:16.364Z,99103.88
2023-04-09T06:20:42.886Z,99102.06
2023-04-09T06:23:09.383Z,99102.44
2023-04-09T06:25:36.623Z,99100.19
2023-04-09T06:28:03.365Z,99109.88
2023-04-09T06:30:31.801Z,99106.34
2023-04-09T06:32:58.315Z,99104.50
2023-04-09T06:35:24.745Z,99101.13
2023-04-09T06:37:51.301Z,99107.31
2023-04-09T06:40:18.792Z,99106.75
2023-04-09T06:42:46.736Z,99108.63
2023-04-09T06:45:13.239Z,99111.09
2023-04-09T06:47:39.825Z,99115.22
2023-04-09T06:50:06.969Z,99111.78
2023-04-09T06:52:33.501Z,99117.50
2023-04-09T06:55:00.003Z,99121.06
2023-04-09T06:57:27.237Z,99117.81
2023-04-09T06:59:53.735Z,99120.75
2023-04-09T07:02:20.518Z,99122.59
2023-04-09T07:04:47.853Z,99123.44
2023-04-09T07:07:14.584Z,99131.22
2023-04-09T07:09:41.145Z,99132.91
2023-04-09T07:12:07.631Z,99123.31
2023-04-09T07:14:34.167Z,99128.72
2023-04-09T07:17:00.696Z,99131.69
2023-04-09T07:19:27.225Z,99134.38
2023-04-09T07:21:53.807Z,99130.94
2023-04-09T07:24:20.328Z,99129.63
2023-04-09T07:26:46.868Z,99131.97
2023-04-09T07:29:13.395Z,99131.00
2023-04-09T07:31:40.009Z,99123.91
2023-04-09T07:34:07.041Z,99121.56
2023-04-09T07:36:33.704Z,99130.97
2023-04-09T07:39:00.166Z,99137.25
2023-04-09T07:41:26.693Z,99135.25
2023-04-09T07:43:53.256Z,99134.94
2023-04-09T07:46:21.620Z,99129.66
2023-04-09T07:48:50.181Z,99140.25
2023-04-09T07:51:17.143Z,99130.09
2023-04-09T07:53:43.623Z,99123.59
2023-04-09T07:56:10.386Z,99135.22
2023-04-09T07:58:38.159Z,99126.34
2023-04-09T08:01:04.939Z,99123.03
2023-04-09T08:03:31.826Z,99122.13
2023-04-09T08:05:58.547Z,99120.47
2023-04-09T08:08:25.009Z,99118.06
2023-04-09T08:10:51.631Z,99120.19
2023-04-09T08:13:18.100Z,99124.44
2023-04-09T08:15:44.602Z,99124.16
2023-04-09T08:18:11.127Z,99121.16
2023-04-09T08:20:37.964Z,99123.34
2023-04-09T08:23:04.568Z,99130.44
2023-04-09T08:25:31.089Z,99131.78
2023-04-09T08:27:58.124Z,99126.38
2023-04-09T08:30:24.714Z,99125.03
2023-04-09T08:32:51.342Z,99123.63
2023-04-09T08:35:17.900Z,99121.91
2023-04-09T08:37:44.478Z,99115.22
2023-04-09T08:40:11.851Z,99108.34
2023-04-09T08:42:46.098Z,99119.53
2023-04-09T08:45:13.232Z,99122.50
2023-04-09T08:47:42.217Z,99114.59
2023-04-09T08:50:09.281Z,99116.72
2023-04-09T08:52:37.070Z,99116.84
2023-04-09T08:55:03.878Z,99110.66
2023-04-09T08:57:30.589Z,99114.09
2023-04-09T08:59:58.838Z,99116.53
2023-04-09T09:02:25.559Z,99117.38
2023-04-09T09:04:53.486Z,99109.78
2023-04-09T09:07:19.979Z,99105.94
2023-04-09T09:09:58.789Z,99105.72
2023-04-09T09:12:39.529Z,99101.38
2023-04-09T09:15:25.475Z,99104.22
2023-04-09T09:17:57.415Z,99114.00
2023-04-09T09:20:25.693Z,99108.09
2023-04-09T09:22:55.626Z,99101.53
2023-04-09T09:25:26.267Z,99099.47
2023-04-09T09:27:54.323Z,99095.84
2023-04-09T09:30:26.079Z,99100.47
2023-04-09T09:32:53.900Z,99097.94
2023-04-09T09:35:20.569Z,99081.78
2023-04-09T09:37:47.097Z,99088.19
2023-04-09T09:40:27.743Z,99085.69
2023-04-09T09:42:58.088Z,99087.22
2023-04-09T09:45:25.709Z,99088.78
2023-04-09T09:47:53.799Z,99079.25
2023-04-09T09:50:25.249Z,99088.63
2023-04-09T09:52:58.827Z,99077.13
2023-04-09T09:55:30.915Z,99076.97
2023-04-09T09:58:01.943Z,99078.28
2023-04-09T10:00:31.703Z,99075.28
2023-04-09T10:03:07.983Z,99067.72
2023-04-09T10:05:36.849Z,99073.34
2023-04-09T10:08:04.496Z,99063.34
2023-04-09T10:10:31.162Z,99064.72
2023-04-09T10:12:58.620Z,99061.31
2023-04-09T10:15:28.511Z,99066.97
2023-04-09T10:17:56.130Z,99062.53
2023-04-09T10:20:47.114Z,99057.56
2023-04-09T10:23:24.332Z,99057.25
2023-04-09T10:25:50.921Z,99059.78
2023-04-09T10:28:18.613Z,99051.03
2023-04-09T10:30:45.160Z,99052.38
2023-04-09T10:33:14.079Z,99053.44
2023-04-09T10:35:41.091Z,99063.00
2023-04-09T10:38:08.993Z,99053.25
2023-04-09T10:40:56.286Z,99049.50
2023-04-09T10:43:23.684Z,99051.44
2023-04-09T10:45:54.431Z,99053.47
2023-04-09T10:48:22.013Z,99043.41
2023-04-09T10:50:52.280Z,99052.16
2023-04-09T10:53:26.044Z,99046.91
2023-04-09T10:55:53.879Z,99050.78
2023-04-09T10:58:20.697Z,99048.84
2023-04-09T11:00:49.376Z,99049.50
2023-04-09T11:03:24.400Z,99042.38
2023-04-09T11:06:03.187Z,99048.19
2023-04-09T11:08:33.916Z,99030.53
2023-04-09T11:11:01.942Z,99034.03
2023-04-09T11:13:30.356Z,99032.28
2023-04-09T11:15:57.938Z,99035.72
2023-04-09T11:18:26.777Z,99030.59
2023-04-09T11:21:01.343Z,99041.13
2023-04-09T11:23:28.619Z,99028.63
2023-04-09T11:25:56.192Z,99023.78
2023-04-09T11:28:23.925Z,99030.00
2023-04-09T11:30:51.992Z,99030.47
2023-04-09T11:33:20.424Z,99022.97
2023-04-09T11:35:48.073Z,99024.94
2023-04-09T11:38:14.712Z,99023.34
2023-04-09T11:40:47.919Z,99018.25
2023-04-09T11:43:18.502Z,99018.16
2023-04-09T11:45:48.446Z,99017.03
2023-04-09T11:48:18.199Z,99010.91
2023-04-09T11:50:45.036Z,99010.44
2023-04-09T11:53:18.327Z,99018.28
2023-04-09T11:55:47.601Z,99002.44
2023-04-09T11:58:14.750Z,99006.56
2023-04-09T12:00:41.522Z,99003.81
2023-04-09T12:03:08.388Z,99007.91
2023-04-09T12:05:35.736Z,99000.06
2023-04-09T12:08:05.053Z,99000.09
2023-04-09T12:10:33.257Z,98999.00
2023-04-09T12:13:06.056Z,98994.91
2023-04-09T12:15:34.771Z,99003.31
2023-04-09T12:18:01.765Z,98999.22
2023-04-09T12:20:29.154Z,98993.56
2023-04-09T12:22:56.482Z,98987.56
2023-04-09T12:25:23.070Z,98986.44
2023-04-09T12:27:49.725Z,98988.09
2023-04-09T12:30:16.657Z,98984.59
2023-04-09T12:32:44.865Z,98986.56
2023-04-09T12:35:11.466Z,98978.66
2023-04-09T12:37:38.210Z,98978.56
2023-04-09T12:40:05.125Z,98978.34
2023-04-09T12:42:31.589Z,98979.34
2023-04-09T12:44:58.128Z,98970.38
2023-04-09T12:47:24.760Z,98975.50
2023-04-09T12:49:51.281Z,98974.44
2023-04-09T12:52:18.627Z,98968.84
2023-04-09T12:54:45.172Z,98971.09
2023-04-09T12:57:11.657Z,98960.09
2023-04-09T12:59:38.111Z,98969.34
2023-04-09T13:02:04.726Z,98953.81
2023-04-09T13:04:31.554Z,98960.78
2023-04-09T13:06:58.191Z,98962.06
2023-04-09T13:09:25.657Z,98961.56
2023-04-09T13:11:52.208Z,98966.72
2023-04-09T13:14:18.665Z,98953.28
2023-04-09T13:16:45.221Z,98951.72
2023-04-09T13:19:11.741Z,98953.34
2023-04-09T13:21:38.298Z,98953.75
2023-04-09T13:24:05.167Z,98952.06
2023-04-09T13:26:31.994Z,98947.47
2023-04-09T13:29:02.228Z,98952.88
2023-04-09T13:31:28.716Z,98942.78
2023-04-09T13:33:55.583Z,98935.69
2023-04-09T13:36:22.110Z,98945.81
2023-04-09T13:38:48.988Z,98937.44
2023-04-09T13:41:15.764Z,98938.06
2023-04-09T13:43:42.291Z,98940.22
2023-04-09T13:46:08.785Z,98939.94
2023-04-09T13:48:35.408Z,98937.13
2023-04-09T13:51:02.022Z,98934.31
2023-04-09T13:53:28.600Z,98928.59
2023-04-09T13:55:55.417Z,98922.19
2023-04-09T13:58:23.330Z,98926.88
2023-04-09T14:00:49.833Z,98918.50
2023-04-09T14:03:16.787Z,98912.28
2023-04-09T14:05:43.481Z,98913.88
2023-04-09T14:08:10.056Z,98908.91
2023-04-09T14:10:36.643Z,98905.06
2023-04-09T14:13:06.519Z,98902.56
2023-04-09T14:15:34.890Z,98895.53
2023-04-09T14:18:01.602Z,98901.06
2023-04-09T14:20:28.564Z,98900.88
2023-04-09T14:22:55.321Z,98897.66
2023-04-09T14:25:21.843Z,98899.75
2023-04-09T14:27:48.339Z,98897.19
2023-04-09T14:30:14.852Z,98891.88
2023-04-09T14:32:41.361Z,98891.97
2023-04-09T14:35:08.287Z,98901.66
2023-04-09T14:37:34.875Z,98901.28
2023-04-09T14:40:01.469Z,98895.00
2023-04-09T14:42:28.059Z,98888.66
2023-04-09T14:44:55.208Z,98897.28
2023-04-09T14:47:21.956Z,98911.47
2023-04-09T14:49:48.536Z,98899.75
2023-04-09T14:52:15.340Z,98900.63
2023-04-09T14:54:42.905Z,98901.47
2023-04-09T14:57:09.389Z,98900.47
2023-04-09T14:59:36.428Z,98909.69
2023-04-09T15:02:03.227Z,98906.63
2023-04-09T15:04:30.026Z,98906.88
2023-04-09T15:06:56.705Z,98902.34
2023-04-09T15:09:23.269Z,98907.91
2023-04-09T15:11:49.840Z,98905.00
2023-04-09T15:14:17.016Z,98899.34
2023-04-09T15:16:43.597Z,98900.91
2023-04-09T15:19:10.210Z,98896.44
2023-04-09T15:21:36.763Z,98890.59
2023-04-09T15:24:03.721Z,98892.75
2023-04-09T15:26:30.337Z,98892.00
2023-04-09T15:29:07.797Z,98898.28
2023-04-09T15:31:34.447Z,98895.06
2023-04-09T15:34:01.050Z,98891.25
2023-04-09T15:36:29.979Z,98894.53
2023-04-09T15:38:56.617Z,98902.63
2023-04-09T15:41:24.057Z,98902.09
2023-04-09T15:43:51.753Z,98892.84
2023-04-09T15:46:18.719Z,98898.81
2023-04-09T15:48:45.353Z,98895.81
2023-04-09T15:51:11.902Z,98883.63
2023-04-09T15:53:39.094Z,98890.38
2023-04-09T15:56:06.107Z,98898.00
2023-04-09T15:58:32.695Z,98896.59
2023-04-09T16:00:59.326Z,98890.09
2023-04-09T16:03:26.220Z,98890.84
2023-04-09T16:05:52.704Z,98894.97
2023-04-09T16:08:19.226Z,98885.75
2023-04-09T16:10:45.665Z,98884.34
2023-04-09T16:13:12.178Z,98883.53
2023-04-09T16:15:38.849Z,98882.06
2023-04-09T16:18:06.240Z,98877.44
2023-04-09T16:20:32.798Z,98882.34
2023-04-09T16:22:59.295Z,98888.81
2023-04-09T16:25:25.896Z,98882.84
2023-04-09T16:27:52.400Z,98891.47
2023-04-09T16:30:18.858Z,98898.00
2023-04-09T16:32:45.331Z,98895.22
2023-04-09T16:35:11.836Z,98889.00
2023-04-09T16:37:38.795Z,98890.13
2023-04-09T16:40:05.865Z,98896.88
2023-04-09T16:42:33.121Z,98892.53
2023-04-09T16:44:59.619Z,98892.47
2023-04-09T16:47:26.060Z,98898.66
2023-04-09T16:49:52.603Z,98889.06
2023-04-09T16:52:19.110Z,98896.34
2023-04-09T16:54:45.822Z,98896.38
2023-04-09T16:57:12.695Z,98890.97
2023-04-09T16:59:40.829Z,98892.69
2023-04-09T17:02:07.743Z,98896.69
2023-04-09T17:04:36.328Z,98897.72
2023-04-09T17:07:03.036Z,98897.66
2023-04-09T17:09:31.280Z,98897.72
2023-04-09T17:11:58.401Z,98900.19
2023-04-09T17:14:24.889Z,98900.13
2023-04-09T17:16:53.716Z,98900.94
2023-04-09T17:19:20.233Z,98907.91
2023-04-09T17:21:46.728Z,98890.59
2023-04-09T17:24:13.179Z,98905.66
2023-04-09T17:26:39.665Z,98912.47
2023-04-09T17:29:06.309Z,98911.16
2023-04-09T17:31:32.776Z,98906.09
2023-04-09T17:33:59.288Z,98910.38
2023-04-09T17:36:26.277Z,98910.66
2023-04-09T17:38:53.196Z,98911.59
2023-04-09T17:41:19.864Z,98918.84
2023-04-09T17:43:46.378Z,98919.53
2023-04-09T17:46:12.983Z,98919.81
2023-04-09T17:48:39.799Z,98915.78
2023-04-09T17:51:06.917Z,98921.91
2023-04-09T17:53:33.469Z,98928.88
2023-04-09T17:56:02.954Z,98929.97
2023-04-09T17:58:29.963Z,98922.97
2023-04-09T18:00:56.670Z,98927.84
2023-04-09T18:03:23.488Z,98937.00
2023-04-09T18:05:50.291Z,98931.44
2023-04-09T18:08:17.428Z,98933.88
2023-04-09T18:10:43.974Z,98929.03
2023-04-09T18:13:10.701Z,98943.81
2023-04-09T18:15:37.360Z,98939.50
2023-04-09T18:18:03.868Z,98943.19
2023-04-09T18:20:30.509Z,98945.41
2023-04-09T18:22:57.234Z,98949.59
2023-04-09T18:25:24.027Z,98954.31
2023-04-09T18:27:51.250Z,98965.88
2023-04-09T18:30:17.910Z,98962.84
2023-04-09T18:32:44.408Z,98961.19
2023-04-09T18:35:11.084Z,98960.31
2023-04-09T18:37:38.238Z,98963.34
2023-04-09T18:40:06.216Z,98961.66
2023-04-09T18:42:32.765Z,98978.34
2023-04-09T18:44:59.194Z,98975.06
2023-04-09T18:47:26.049Z,98981.28
2023-04-09T18:49:52.638Z,98979.69
2023-04-09T18:52:19.082Z,98987.75
2023-04-09T18:54:45.567Z,98984.91
2023-04-09T18:57:12.149Z,98988.50
2023-04-09T18:59:40.018Z,98991.28
2023-04-09T19:02:06.871Z,98999.59
2023-04-09T19:04:39.577Z,99002.25
2023-04-09T19:07:06.734Z,98998.06
2023-04-09T19:09:33.574Z,99007.94
2023-04-09T19:12:01.422Z,99001.97
2023-04-09T19:14:27.917Z,99008.91
2023-04-09T19:16:54.768Z,99006.53
2023-04-09T19:19:21.729Z,99005.47
2023-04-09T19:21:48.158Z,99011.44
2023-04-09T19:24:14.633Z,99011.00
2023-04-09T19:26:41.158Z,99024.19
2023-04-09T19:29:08.140Z,99014.50
2023-04-09T19:31:34.627Z,99015.63
2023-04-09T19:34:01.121Z,99008.59
2023-04-09T19:36:28.403Z,99014.81
2023-04-09T19:38:55.124Z,99014.34
2023-04-09T19:41:21.731Z,99021.97
2023-04-09T19:43:48.304Z,99017.16
2023-04-09T19:46:14.864Z,99020.94
2023-04-09T19:48:41.307Z,99020.94
2023-04-09T19:51:07.789Z,99015.75
2023-04-09T19:53:36.280Z,99022.16
2023-04-09T19:56:03.319Z,99019.97
2023-04-09T19:58:32.016Z,99021.03
2023-04-09T20:00:58.637Z,99030.41
2023-04-09T20:03:25.435Z,99018.44
2023-04-09T20:05:52.033Z,99020.66
2023-04-09T20:08:18.532Z,99017.19
2023-04-09T20:10:47.137Z,99017.31
2023-04-09T20:13:13.795Z,99021.75
2023-04-09T20:15:40.288Z,99027.00
2023-04-09T20:18:07.247Z,99018.47
2023-04-09T20:20:33.735Z,99017.06
2023-04-09T20:23:00.857Z,99022.47
2023-04-09T20:25:33.847Z,99016.38
2023-04-09T20:28:01.891Z,99022.06
2023-04-09T20:30:28.445Z,99017.06
2023-04-09T20:32:54.980Z,99014.38
2023-04-09T20:35:21.629Z,99014.94
2023-04-09T20:37:49.433Z,99011.25
2023-04-09T20:40:16.414Z,99008.94
2023-04-09T20:42:44.072Z,99011.03
2023-04-09T20:45:11.250Z,99013.56
2023-04-09T20:47:37.851Z,99010.50
2023-04-09T20:50:04.885Z,99008.63
2023-04-09T20:52:31.523Z,99008.13
2023-04-09T20:54:58.650Z,99007.56
2023-04-09T20:57:25.122Z,99012.09
2023-04-09T20:59:52.950Z,99004.41
2023-04-09T21:02:20.185Z,99002.84
2023-04-09T21:04:47.055Z,98998.56
2023-04-09T21:07:14.652Z,99004.38
2023-04-09T21:09:41.212Z,99000.19
2023-04-09T21:12:07.809Z,98999.56
2023-04-09T21:14:34.325Z,99001.09
2023-04-09T21:17:01.041Z,99000.50
2023-04-09T21:19:27.558Z,98997.56
2023-04-09T21:21:54.314Z,98999.19
2023-04-09T21:24:20.853Z,98997.22
2023-04-09T21:26:50.820Z,99002.03
2023-04-09T21:29:20.278Z,99005.69
2023-04-09T21:31:47.804Z,99002.84
2023-04-09T21:34:14.343Z,99003.56
2023-04-09T21:36:41.353Z,99004.25
2023-04-09T21:39:07.929Z,98994.78
2023-04-09T21:41:34.830Z,99000.88
2023-04-09T21:44:07.861Z,98996.50
2023-04-09T21:46:36.959Z,98995.22
2023-04-09T21:49:04.159Z,98995.53
2023-04-09T21:51:31.415Z,98999.41
2023-04-09T21:54:08.972Z,98992.09
2023-04-09T21:56:36.107Z,98991.81
2023-04-09T21:59:03.660Z,99006.84
2023-04-09T22:01:34.486Z,99004.19
2023-04-09T22:04:02.160Z,99001.69
2023-04-09T22:06:29.356Z,99006.69
2023-04-09T22:08:57.322Z,99004.44
2023-04-09T22:11:28.995Z,99003.84
2023-04-09T22:13:57.084Z,99006.84
2023-04-09T22:16:24.438Z,99009.50
2023-04-09T22:18:51.493Z,99016.06
2023-04-09T22:21:18.303Z,99006.91
2023-04-09T22:23:44.883Z,99009.38
2023-04-09T22:26:11.371Z,99014.66
2023-04-09T22:28:38.461Z,99012.41
2023-04-09T22:31:05.873Z,99017.03
2023-04-09T22:33:32.582Z,99012.31
2023-04-09T22:35:59.589Z,99014.41
2023-04-09T22:38:26.560Z,99019.34
2023-04-09T22:40:53.153Z,99027.72
2023-04-09T22:43:19.792Z,99022.22
2023-04-09T22:45:51.941Z,99019.31
2023-04-09T22:48:19.033Z,99019.94
2023-04-09T22:50:45.956Z,99020.00
2023-04-09T22:53:12.798Z,99013.19
2023-04-09T22:55:39.215Z,99018.78
2023-04-09T22:58:05.963Z,99013.59
2023-04-09T23:00:32.535Z,99012.84
2023-04-09T23:02:59.232Z,99011.78
2023-04-09T23:05:25.850Z,99015.22
2023-04-09T23:07:52.416Z,99017.66
2023-04-09T23:10:19.279Z,99017.81
2023-04-09T23:12:45.781Z,99018.84
2023-04-09T23:15:12.303Z,99007.50
2023-04-09T23:17:38.900Z,99011.03
2023-04-09T23:20:07.996Z,99003.88
2023-04-09T23:22:34.930Z,98992.97
2023-04-09T23:25:01.436Z,99011.34
2023-04-09T23:27:28.869Z,99002.16
2023-04-09T23:29:56.642Z,99003.13
2023-04-09T23:32:23.206Z,99002.00
2023-04-09T23:34:50.641Z,99005.50
2023-04-09T23:37:17.577Z,99005.69
2023-04-09T23:39:44.093Z,99006.53
2023-04-09T23:42:10.781Z,99006.38
2023-04-09T23:44:37.283Z,99013.22
2023-04-09T23:47:05.903Z,99010.09
2023-04-09T23:49:32.554Z,99011.63
2023-04-09T23:51:59.026Z,99011.63
2023-04-09T23:54:25.512Z,99007.19
2023-04-09T23:56:51.991Z,99008.38
2023-04-09T23:59:18.478Z,99005.94
